Terminal Aerodrome Forecast
Issued by NWS

Home | Current Version | Previous Version | Text Only | Print | Product List | Glossary On
Versions: 1 2 3 4 5 6 7 8 9 10 11 12 13 14 15
000
FTUS42 KGSP 230534
TAFHKY
TAF
KHKY 230534Z 2306/2406 VRB03KT P6SM SKC
      TEMPO 2309/2312 1SM BR SCT005
     FM231500 28005KT P6SM VCSH SCT050 BKN120 PROB30 2317/2322 4SM
      -TSRA BKN040CB
     FM232200 33007KT P6SM VCSH BKN050
     FM240000 34005KT P6SM BKN050
     FM240300 36005KT P6SM SCT050=

USA.gov is the U.S. government's official web portal to all federal, state and local government web resources and services.